Time;durP1;ratioP1;P1;durP2;ratioP2;P2;SDS_P1;SDS_P2;PMS_P1;PMS_P2;Temp;Humidity;BMP_temperature;BMP_pressure;BME280_temperature;BME280_humidity;BME280_pressure;Samples;Min_cycle;Max_cycle;Signal;HPM_P1;HPM_P2
2022/07/28 00:08:49;;;;;;;7.25;6.20;;;16.60;99.90;;;;;;20808071;28;20482;-58
2022/07/28 00:18:51;;;;;;;6.72;6.03;;;16.50;99.90;;;;;;20805585;28;20107;-57
2022/07/28 00:28:54;;;;;;;8.63;6.43;;;16.40;99.90;;;;;;20804662;28;20095;-58
2022/07/28 00:38:56;;;;;;;6.50;5.72;;;16.00;99.90;;;;;;20803580;28;20029;-58
2022/07/28 00:48:59;;;;;;;6.50;5.90;;;16.00;99.90;;;;;;20802980;28;20029;-57
2022/07/28 00:59:01;;;;;;;6.03;5.43;;;15.90;99.90;;;;;;20801706;28;20029;-59
2022/07/28 01:09:22;;;;;;;7.03;5.30;;;15.80;99.90;;;;;;20801841;28;20380;-59
2022/07/28 01:19:24;;;;;;;5.65;5.07;;;15.80;99.90;;;;;;20721253;28;20046;-58
2022/07/28 01:29:56;;;;;;;5.47;4.82;;;15.70;99.90;;;;;;20718494;28;20068;-57
2022/07/28 01:40:03;;;;;;;5.05;3.90;;;15.60;99.90;;;;;;20709703;28;20403;-57
2022/07/28 01:50:09;;;;;;;4.50;4.10;;;15.60;99.90;;;;;;20719399;28;20041;-57
2022/07/28 02:00:12;;;;;;;4.47;4.03;;;15.50;99.90;;;;;;20716026;28;20038;-58
2022/07/28 02:10:17;;;;;;;5.35;4.22;;;15.50;99.90;;;;;;20717119;28;20038;-58
2022/07/28 02:20:20;;;;;;;5.55;4.05;;;15.40;99.90;;;;;;20715071;28;20570;-57
2022/07/28 02:30:28;;;;;;;5.50;4.63;;;15.40;99.90;;;;;;20713755;28;20092;-61
2022/07/28 02:40:37;;;;;;;5.45;4.78;;;15.40;99.90;;;;;;20714376;28;20119;-57
2022/07/28 02:50:41;;;;;;;6.07;4.60;;;15.40;99.90;;;;;;20714655;28;20100;-58
2022/07/28 03:00:44;;;;;;;6.05;5.10;;;15.50;99.90;;;;;;20715865;28;20065;-57
2022/07/28 03:10:47;;;;;;;6.28;5.03;;;15.40;99.90;;;;;;20701949;28;20042;-57
2022/07/28 03:20:49;;;;;;;5.53;4.47;;;15.10;99.90;;;;;;20808198;28;20482;-58
2022/07/28 03:30:59;;;;;;;4.25;3.85;;;14.90;99.90;;;;;;20816009;28;20092;-59
2022/07/28 03:41:02;;;;;;;5.33;4.00;;;14.80;99.90;;;;;;20785605;28;20099;-57
2022/07/28 03:51:04;;;;;;;9.77;4.53;;;14.80;99.90;;;;;;20805433;28;20041;-59
2022/07/28 04:01:07;;;;;;;6.00;4.50;;;14.60;99.90;;;;;;20810048;28;20037;-56
2022/07/28 04:11:09;;;;;;;6.95;4.80;;;14.60;99.90;;;;;;20813121;28;20101;-59
2022/07/28 04:21:13;;;;;;;6.53;4.43;;;14.50;99.90;;;;;;20777344;28;20532;-57
2022/07/28 04:31:15;;;;;;;5.97;4.78;;;14.40;99.90;;;;;;20792344;28;20041;-57
2022/07/28 04:41:18;;;;;;;6.70;4.32;;;14.30;99.90;;;;;;20790325;28;20033;-57
2022/07/28 04:51:21;;;;;;;6.35;4.53;;;14.30;99.90;;;;;;20804641;28;20034;-57
2022/07/28 05:01:24;;;;;;;5.95;4.65;;;14.50;99.90;;;;;;20803375;28;20633;-58
2022/07/28 05:11:26;;;;;;;4.95;4.20;;;14.60;99.90;;;;;;20796836;28;20095;-59
2022/07/28 05:21:29;;;;;;;4.85;3.95;;;14.80;99.90;;;;;;20804672;28;20095;-59
2022/07/28 05:31:32;;;;;;;4.72;4.22;;;15.10;99.90;;;;;;20779793;28;20037;-58
2022/07/28 05:41:34;;;;;;;4.43;3.28;;;15.40;99.90;;;;;;20802996;28;20033;-58
2022/07/28 05:51:36;;;;;;;4.13;3.60;;;15.60;99.90;;;;;;20788501;28;20033;-59
2022/07/28 06:01:38;;;;;;;3.50;3.20;;;15.80;99.90;;;;;;20798541;28;20033;-59
2022/07/28 06:11:41;;;;;;;4.80;3.38;;;15.90;99.90;;;;;;20789445;28;20045;-60
2022/07/28 06:21:44;;;;;;;4.47;3.67;;;16.20;99.90;;;;;;20794906;28;20037;-57
2022/07/28 06:31:46;;;;;;;3.13;2.80;;;16.70;99.90;;;;;;20785020;28;20099;-58
2022/07/28 06:41:48;;;;;;;3.55;3.20;;;21.40;99.60;;;;;;20788607;28;20087;-59
2022/07/28 06:51:50;;;;;;;3.78;3.05;;;23.80;94.40;;;;;;20796235;28;20313;-64
2022/07/28 07:01:53;;;;;;;2.47;2.05;;;25.60;90.20;;;;;;20820054;28;20687;-59
2022/07/28 07:11:55;;;;;;;2.88;2.17;;;26.40;90.00;;;;;;20809258;28;20046;-60
2022/07/28 07:21:58;;;;;;;3.00;2.45;;;28.00;85.50;;;;;;20794873;28;20034;-65
2022/07/28 07:32:01;;;;;;;2.95;2.50;;;28.80;82.20;;;;;;20813510;28;20490;-64
2022/07/28 07:42:03;;;;;;;2.70;2.50;;;28.60;81.90;;;;;;20789294;28;20087;-60
2022/07/28 07:52:06;;;;;;;3.10;2.80;;;28.30;78.80;;;;;;20796442;28;20041;-60
2022/07/28 08:02:08;;;;;;;2.55;2.35;;;28.20;78.40;;;;;;20789329;28;20033;-60
2022/07/28 08:12:10;;;;;;;2.63;2.30;;;27.80;78.70;;;;;;20811793;28;20045;-59
2022/07/28 08:22:14;;;;;;;3.00;2.42;;;27.60;77.00;;;;;;20811388;28;20071;-59
2022/07/28 08:32:17;;;;;;;2.58;2.38;;;27.60;78.20;;;;;;20798471;28;20091;-60
2022/07/28 08:42:37;;;;;;;3.28;2.67;;;27.70;79.40;;;;;;20793604;28;20095;-62
2022/07/28 08:52:44;;;;;;;2.97;2.65;;;28.20;79.00;;;;;;20778733;28;20037;-60
2022/07/28 09:02:48;;;;;;;2.85;2.65;;;28.90;76.50;;;;;;20804361;28;20042;-60
2022/07/28 09:12:50;;;;;;;3.65;2.70;;;30.00;75.30;;;;;;20787376;28;20580;-62
2022/07/28 09:22:58;;;;;;;3.30;3.00;;;30.70;74.10;;;;;;20793849;28;20038;-61
2022/07/28 09:33:21;;;;;;;3.40;3.10;;;31.40;74.10;;;;;;20808035;28;20560;-59
2022/07/28 09:43:35;;;;;;;4.10;3.35;;;30.90;72.30;;;;;;20796547;28;20091;-59
2022/07/28 09:53:37;;;;;;;4.72;3.38;;;30.20;75.00;;;;;;20807137;28;20080;-59
2022/07/28 10:03:41;;;;;;;5.70;4.30;;;30.90;74.40;;;;;;20797771;28;20026;-59
2022/07/28 10:13:52;;;;;;;7.55;4.10;;;31.10;70.70;;;;;;20787648;28;20076;-59
2022/07/28 10:23:59;;;;;;;5.53;4.63;;;29.20;74.70;;;;;;20799874;28;20139;-59
2022/07/28 10:34:04;;;;;;;5.93;3.63;;;29.40;74.20;;;;;;20795103;28;20103;-59
2022/07/28 10:44:07;;;;;;;4.53;3.40;;;28.70;75.70;;;;;;20801861;28;20041;-59
2022/07/28 10:54:25;;;;;;;4.65;4.13;;;29.70;73.70;;;;;;20801346;28;20540;-58
2022/07/28 11:04:46;;;;;;;4.57;3.58;;;29.30;73.30;;;;;;20788559;28;20087;-58
2022/07/28 11:14:49;;;;;;;5.90;3.97;;;30.20;73.00;;;;;;20802074;28;20073;-60
2022/07/28 11:25:01;;;;;;;4.30;3.90;;;31.10;70.30;;;;;;20798999;28;20099;-57
2022/07/28 11:35:07;;;;;;;5.15;3.88;;;32.20;69.30;;;;;;20802314;28;20056;-58
2022/07/28 11:45:24;;;;;;;4.40;3.67;;;32.20;67.90;;;;;;20812190;28;20037;-60
2022/07/28 11:55:27;;;;;;;4.13;3.72;;;30.60;67.80;;;;;;20784442;28;20490;-60
2022/07/28 12:05:30;;;;;;;7.97;3.60;;;29.50;71.80;;;;;;20815407;28;20068;-58
2022/07/28 12:15:36;;;;;;;5.32;4.07;;;30.40;69.40;;;;;;20794997;28;20068;-57
2022/07/28 12:25:45;;;;;;;7.18;4.60;;;31.20;68.60;;;;;;20802974;28;20068;-57
2022/07/28 12:35:51;;;;;;;4.72;3.78;;;32.20;66.50;;;;;;20791918;28;20148;-59
2022/07/28 12:45:55;;;;;;;6.45;4.30;;;32.20;65.20;;;;;;20779632;28;20033;-57
2022/07/28 12:56:01;;;;;;;6.18;4.03;;;32.50;67.30;;;;;;20797844;28;20041;-57
2022/07/28 13:06:09;;;;;;;4.65;3.83;;;30.40;67.70;;;;;;20869111;28;20063;-57
2022/07/28 13:16:17;;;;;;;6.05;3.70;;;28.40;71.20;;;;;;20871958;28;20037;-57
2022/07/28 13:26:21;;;;;;;5.40;3.92;;;27.60;73.00;;;;;;20871047;28;20158;-57
2022/07/28 13:36:24;;;;;;;8.02;4.30;;;26.80;73.30;;;;;;20855744;28;20037;-60
2022/07/28 13:46:28;;;;;;;7.07;4.63;;;26.40;75.20;;;;;;20865617;28;20432;-57
2022/07/28 13:56:30;;;;;;;7.75;4.63;;;26.30;75.30;;;;;;20865491;28;20075;-57
2022/07/28 14:06:34;;;;;;;6.72;4.88;;;26.50;75.60;;;;;;20864174;28;20106;-57
2022/07/28 14:16:36;;;;;;;6.35;4.85;;;26.10;75.90;;;;;;20867107;28;20445;-57
2022/07/28 14:26:39;;;;;;;7.00;5.28;;;26.10;76.30;;;;;;20882517;28;20036;-57
2022/07/28 14:36:42;;;;;;;5.45;4.75;;;25.50;78.00;;;;;;20868681;28;20061;-57
2022/07/28 14:46:44;;;;;;;7.25;6.10;;;25.80;78.80;;;;;;20859568;28;20414;-58
2022/07/28 14:56:47;;;;;;;10.68;6.47;;;29.10;73.40;;;;;;20865495;28;20025;-58
2022/07/28 15:06:50;;;;;;;9.00;7.22;;;29.50;72.50;;;;;;20866723;28;20064;-57
2022/07/28 15:16:52;;;;;;;9.15;6.88;;;30.20;71.00;;;;;;20871168;28;20072;-57
2022/07/28 15:26:56;;;;;;;8.85;7.95;;;30.20;71.40;;;;;;20887342;28;20036;-56
2022/07/28 15:36:59;;;;;;;9.70;6.72;;;30.90;69.70;;;;;;20876333;28;20095;-57
2022/07/28 15:47:02;;;;;;;7.22;6.25;;;29.70;71.40;;;;;;20871250;28;20040;-57
2022/07/28 15:57:04;;;;;;;8.27;6.88;;;27.10;76.80;;;;;;20878076;28;20041;-57
2022/07/28 16:07:18;;;;;;;8.35;7.15;;;26.10;79.20;;;;;;20872355;28;20034;-59
2022/07/28 16:17:22;;;;;;;10.82;7.63;;;25.30;81.80;;;;;;20878457;28;20053;-59
2022/07/28 16:27:25;;;;;;;8.73;7.85;;;24.90;83.30;;;;;;20872095;28;20045;-57
2022/07/28 16:37:27;;;;;;;9.98;8.88;;;24.30;85.80;;;;;;20872383;28;20091;-58
2022/07/28 16:47:29;;;;;;;12.15;9.43;;;23.70;88.20;;;;;;20872509;28;20033;-59
2022/07/28 16:57:32;;;;;;;10.40;7.68;;;23.00;90.30;;;;;;20865800;28;20117;-58
2022/07/28 17:07:37;;;;;;;8.55;7.65;;;22.50;91.50;;;;;;20867678;28;20032;-58
2022/07/28 17:17:39;;;;;;;12.27;8.75;;;22.50;91.90;;;;;;20855294;28;20410;-58
2022/07/28 17:27:43;;;;;;;12.02;8.80;;;22.50;92.20;;;;;;20863105;28;20041;-58
2022/07/28 17:37:45;;;;;;;10.88;8.38;;;22.30;92.80;;;;;;20874002;28;20036;-58
2022/07/28 17:47:48;;;;;;;9.15;7.70;;;21.90;93.20;;;;;;20859665;28;20436;-57
2022/07/28 17:57:50;;;;;;;9.93;8.10;;;21.50;94.70;;;;;;20857385;28;21746;-59
2022/07/28 18:07:54;;;;;;;11.13;8.77;;;21.00;95.20;;;;;;20867869;28;20126;-57
2022/07/28 18:17:56;;;;;;;10.75;8.38;;;20.50;96.20;;;;;;20860061;28;20556;-58
2022/07/28 18:28:00;;;;;;;12.90;9.30;;;19.90;97.50;;;;;;20872416;28;20029;-58
2022/07/28 18:38:03;;;;;;;11.32;7.93;;;19.40;98.80;;;;;;20861242;28;20094;-58
2022/07/28 18:48:06;;;;;;;11.55;8.25;;;18.90;99.90;;;;;;20871901;28;20032;-58
2022/07/28 18:58:08;;;;;;;11.25;9.40;;;18.30;99.90;;;;;;20881163;28;20037;-57
2022/07/28 19:08:11;;;;;;;12.60;10.50;;;17.80;99.90;;;;;;20875855;28;20086;-58
2022/07/28 19:18:13;;;;;;;11.00;9.52;;;17.50;99.90;;;;;;20882564;28;20099;-58
2022/07/28 19:28:17;;;;;;;12.77;10.50;;;17.20;99.90;;;;;;20878954;28;20029;-57
2022/07/28 19:38:19;;;;;;;13.13;10.63;;;17.10;99.90;;;;;;20870696;28;20033;-58
2022/07/28 19:48:23;;;;;;;12.15;9.70;;;16.90;99.90;;;;;;20862308;28;20048;-57
2022/07/28 19:58:28;;;;;;;13.45;10.88;;;16.80;99.90;;;;;;20872559;28;20155;-57
2022/07/28 20:08:31;;;;;;;13.68;10.57;;;16.80;99.90;;;;;;20872545;28;20036;-58
2022/07/28 20:18:34;;;;;;;11.90;9.90;;;16.80;99.90;;;;;;20892376;28;20103;-58
2022/07/28 20:28:37;;;;;;;13.00;9.23;;;16.80;99.90;;;;;;20876890;28;20033;-57
2022/07/28 20:38:40;;;;;;;12.93;9.15;;;16.90;99.90;;;;;;20858320;28;20106;-57
2022/07/28 20:48:42;;;;;;;12.40;9.60;;;16.90;99.90;;;;;;20864772;28;20098;-57
2022/07/28 20:58:45;;;;;;;11.52;8.90;;;16.90;99.90;;;;;;20878124;28;20029;-58
2022/07/28 21:08:48;;;;;;;11.52;8.93;;;17.00;99.90;;;;;;20869858;28;20375;-58
2022/07/28 21:18:50;;;;;;;9.90;7.78;;;17.20;99.90;;;;;;20810270;28;20049;-57
2022/07/28 21:29:14;;;;;;;9.23;7.68;;;17.20;99.90;;;;;;20800771;28;20667;-57
2022/07/28 21:39:27;;;;;;;7.32;6.45;;;17.20;99.90;;;;;;21288355;27;20196;-58
2022/07/28 21:49:31;;;;;;;10.60;6.40;;;17.30;99.90;;;;;;21189616;28;20028;-60
2022/07/28 21:59:33;;;;;;;10.02;7.85;;;17.40;99.90;;;;;;21176919;28;20084;-58
2022/07/28 22:09:36;;;;;;;7.35;6.63;;;17.60;99.90;;;;;;21197299;28;20076;-58
2022/07/28 22:19:39;;;;;;;7.30;5.90;;;17.70;99.90;;;;;;21194154;28;20031;-59
2022/07/28 22:29:44;;;;;;;6.13;1.15;;;18.00;99.90;;;;;;21185280;27;20035;-56
2022/07/28 22:39:49;;;;;;;8.25;1.17;;;;;;;;;;21086555;28;20082;-59
2022/07/28 22:49:55;;;;;;;2.95;1.52;;;14.30;99.90;;;;;;21057633;28;20481;-57
2022/07/28 22:59:58;;;;;;;1.48;0.60;;;13.90;99.90;;;;;;21048172;28;20036;-62
2022/07/28 23:10:02;;;;;;;2.15;1.00;;;14.00;99.90;;;;;;21048051;28;20040;-59
2022/07/28 23:20:05;;;;;;;2.03;1.33;;;14.50;99.90;;;;;;21047049;28;20066;-54
2022/07/28 23:30:08;;;;;;;3.15;1.00;;;14.30;99.90;;;;;;21048836;28;20396;-54
2022/07/28 23:40:12;;;;;;;3.70;1.65;;;13.60;99.90;;;;;;21134522;28;20088;-61
2022/07/28 23:50:15;;;;;;;1.70;1.20;;;13.50;99.90;;;;;;21131533;28;20501;-55
